Time;durP1;ratioP1;P1;durP2;ratioP2;P2;SDS_P1;SDS_P2;PMS_P1;PMS_P2;Temp;Humidity;BMP_temperature;BMP_pressure;BME280_temperature;BME280_humidity;BME280_pressure;Samples;Min_cycle;Max_cycle;Signal;HPM_P1;HPM_P2
2023/12/28 00:02:13;;;;;;;;;;;;;;;;;;107681;1253;60051;-81
2023/12/28 00:04:40;;;;;;;;;;;;;;;;;;107680;1254;60748;-81
2023/12/28 00:07:06;;;;;;;;;;;;;;;;;;107563;1254;61701;-81
2023/12/28 00:09:32;;;;;;;;;;;;;;;;;;107602;1254;60606;-80
2023/12/28 00:11:59;;;;;;;;;;;;;;;;;;107739;1253;61616;-80
2023/12/28 00:14:25;;;;;;;;;;;;;;;;;;107580;1252;61834;-81
2023/12/28 00:16:51;;;;;;;;;;;;;;;;;;107518;1253;60585;-81
2023/12/28 00:19:19;;;;;;;;;;;;;;;;;;107620;1253;60565;-81
2023/12/28 00:21:46;;;;;;;;;;;;;;;;;;107697;1252;60377;-81
2023/12/28 00:24:12;;;;;;;;;;;;;;;;;;107603;1254;62540;-80
2023/12/28 00:26:39;;;;;;;;;;;;;;;;;;107654;1254;60641;-81
2023/12/28 00:29:05;;;;;;;;;;;;;;;;;;107546;1253;61754;-80
2023/12/28 00:31:31;;;;;;;;;;;;;;;;;;107603;1253;60577;-80
2023/12/28 00:33:58;;;;;;;;;;;;;;;;;;107542;1254;60703;-81
2023/12/28 00:36:24;;;;;;;;;;;;;;;;;;107627;1256;60039;-80
2023/12/28 00:38:50;;;;;;;;;;;;;;;;;;107707;1253;61642;-81
2023/12/28 00:41:17;;;;;;;;;;;;;;;;;;107635;1252;59905;-81
2023/12/28 00:43:43;;;;;;;;;;;;;;;;;;107591;1254;62664;-81
2023/12/28 00:46:09;;;;;;;;;;;;;;;;;;107560;1253;60741;-80
2023/12/28 00:48:36;;;;;;;;;;;;;;;;;;107078;1253;61776;-81
2023/12/28 00:51:02;;;;;;;;;;;;;;;;;;107699;1254;61658;-82
2023/12/28 00:53:29;;;;;;;;;;;;;;;;;;107701;1253;61772;-81
2023/12/28 00:55:55;;;;;;;;;;;;;;;;;;107654;1254;61108;-82
2023/12/28 00:58:22;;;;;;;;;;;;;;;;;;107632;1254;61646;-82
2023/12/28 01:00:48;;;;;;;;;;;;;;;;;;107140;1253;60333;-82
2023/12/28 01:03:14;;;;;;;;;;;;;;;;;;107096;1254;62567;-81
2023/12/28 01:05:41;;;;;;;;;;;;;;;;;;107631;1253;60349;-80
2023/12/28 01:08:07;;;;;;;;;;;;;;;;;;109163;1253;60016;-81
2023/12/28 01:10:34;;;;;;;;;;;;;;;;;;109511;1253;59897;-81
2023/12/28 01:13:00;;;;;;;;;;;;;;;;;;108119;1253;60635;-80
2023/12/28 01:15:26;;;;;;;;;;;;;;;;;;107804;1253;60667;-82
2023/12/28 01:17:53;;;;;;;;;;;;;;;;;;107766;1253;60618;-80
2023/12/28 01:20:19;;;;;;;;;;;;;;;;;;107671;1253;61785;-81
2023/12/28 01:22:45;;;;;;;;;;;;;;;;;;107562;1254;60698;-80
2023/12/28 01:25:12;;;;;;;;;;;;;;;;;;107563;1254;60638;-81
2023/12/28 01:27:38;;;;;;;;;;;;;;;;;;107816;1252;62597;-81
2023/12/28 01:30:05;;;;;;;;;;;;;;;;;;107662;1254;62795;-81
2023/12/28 01:32:31;;;;;;;;;;;;;;;;;;107632;1252;61902;-80
2023/12/28 01:34:58;;;;;;;;;;;;;;;;;;107539;1254;60621;-81
2023/12/28 01:37:24;;;;;;;;;;;;;;;;;;107563;1254;60642;-82
2023/12/28 01:39:50;;;;;;;;;;;;;;;;;;107621;1253;60631;-81
2023/12/28 01:42:17;;;;;;;;;;;;;;;;;;107577;1252;61648;-81
2023/12/28 01:44:43;;;;;;;;;;;;;;;;;;107612;1254;60594;-82
2023/12/28 01:47:09;;;;;;;;;;;;;;;;;;107626;1254;61601;-81
2023/12/28 01:49:36;;;;;;;;;;;;;;;;;;107614;1253;62245;-82
2023/12/28 01:52:02;;;;;;;;;;;;;;;;;;107612;1253;60171;-81
2023/12/28 01:54:29;;;;;;;;;;;;;;;;;;107685;1254;60664;-80
2023/12/28 01:56:55;;;;;;;;;;;;;;;;;;107705;1252;61448;-82
2023/12/28 01:59:21;;;;;;;;;;;;;;;;;;107659;1254;60751;-82
2023/12/28 02:01:48;;;;;;;;;;;;;;;;;;107677;1253;60086;-82
2023/12/28 02:04:15;;;;;;;;;;;;;;;;;;107657;1252;60659;-81
2023/12/28 02:06:41;;;;;;;;;;;;;;;;;;107710;1252;60636;-80
2023/12/28 02:09:07;;;;;;;;;;;;;;;;;;107606;1253;60295;-81
2023/12/28 02:11:34;;;;;;;;;;;;;;;;;;107610;1253;62641;-80
2023/12/28 02:14:00;;;;;;;;;;;;;;;;;;107686;1254;62504;-81
2023/12/28 02:16:26;;;;;;;;;;;;;;;;;;107720;1253;61677;-81
2023/12/28 02:18:53;;;;;;;;;;;;;;;;;;107689;1253;61578;-81
2023/12/28 02:21:19;;;;;;;;;;;;;;;;;;107640;1254;60617;-81
2023/12/28 02:23:46;;;;;;;;;;;;;;;;;;107541;1253;60623;-80
2023/12/28 02:26:12;;;;;;;;;;;;;;;;;;107687;1253;60631;-81
2023/12/28 02:28:38;;;;;;;;;;;;;;;;;;107602;1254;60627;-82
2023/12/28 02:31:05;;;;;;;;;;;;;;;;;;107577;1254;61780;-81
2023/12/28 02:33:31;;;;;;;;;;;;;;;;;;107599;1252;60485;-81
2023/12/28 02:35:57;;;;;;;;;;;;;;;;;;107630;1253;61754;-82
2023/12/28 02:38:24;;;;;;;;;;;;;;;;;;107594;1253;60736;-80
2023/12/28 02:40:50;;;;;;;;;;;;;;;;;;107478;1254;62117;-81
2023/12/28 02:43:16;;;;;;;;;;;;;;;;;;107668;1252;60751;-81
2023/12/28 02:45:43;;;;;;;;;;;;;;;;;;107600;1253;60637;-81
2023/12/28 02:48:09;;;;;;;;;;;;;;;;;;107564;1253;61773;-80
2023/12/28 02:50:36;;;;;;;;;;;;;;;;;;107582;1253;60550;-81
2023/12/28 02:53:02;;;;;;;;;;;;;;;;;;107480;1252;61654;-82
2023/12/28 02:55:28;;;;;;;;;;;;;;;;;;107059;1254;61166;-81
2023/12/28 02:57:55;;;;;;;;;;;;;;;;;;107087;1252;62434;-82
2023/12/28 03:00:21;;;;;;;;;;;;;;;;;;107634;1252;62933;-81
2023/12/28 03:02:47;;;;;;;;;;;;;;;;;;107607;1254;60525;-81
2023/12/28 03:05:14;;;;;;;;;;;;;;;;;;107647;1253;59885;-82
2023/12/28 03:07:40;;;;;;;;;;;;;;;;;;107653;1253;59904;-81
2023/12/28 03:10:07;;;;;;;;;;;;;;;;;;107601;1256;62821;-83
2023/12/28 03:12:33;;;;;;;;;;;;;;;;;;107587;1253;60500;-81
2023/12/28 03:14:59;;;;;;;;;;;;;;;;;;107699;1253;60711;-81
2023/12/28 03:17:26;;;;;;;;;;;;;;;;;;107628;1252;62923;-82
2023/12/28 03:19:52;;;;;;;;;;;;;;;;;;107613;1254;60649;-82
2023/12/28 03:22:18;;;;;;;;;;;;;;;;;;107688;1253;60660;-81
2023/12/28 03:24:45;;;;;;;;;;;;;;;;;;107662;1253;60610;-81
2023/12/28 03:27:11;;;;;;;;;;;;;;;;;;107669;1252;61426;-81
2023/12/28 03:29:38;;;;;;;;;;;;;;;;;;107158;1252;60551;-81
2023/12/28 03:32:04;;;;;;;;;;;;;;;;;;107076;1253;60583;-81
2023/12/28 03:34:31;;;;;;;;;;;;;;;;;;107072;1254;60692;-81
2023/12/28 03:36:57;;;;;;;;;;;;;;;;;;107144;1254;60638;-81
2023/12/28 03:39:24;;;;;;;;;;;;;;;;;;108851;1252;60042;-80
2023/12/28 03:41:50;;;;;;;;;;;;;;;;;;107612;1253;61703;-81
2023/12/28 03:44:16;;;;;;;;;;;;;;;;;;107595;1256;60073;-81
2023/12/28 03:46:43;;;;;;;;;;;;;;;;;;107660;1254;60627;-81
2023/12/28 03:49:10;;;;;;;;;;;;;;;;;;107553;1254;62946;-81
2023/12/28 03:51:36;;;;;;;;;;;;;;;;;;107144;1252;60571;-81
2023/12/28 03:54:03;;;;;;;;;;;;;;;;;;108744;1253;59922;-80
2023/12/28 03:56:30;;;;;;;;;;;;;;;;;;108905;1253;59703;-81
2023/12/28 03:58:56;;;;;;;;;;;;;;;;;;106971;1254;60448;-82
2023/12/28 04:01:23;;;;;;;;;;;;;;;;;;107034;1254;61531;-82
2023/12/28 04:03:49;;;;;;;;;;;;;;;;;;107010;1254;61756;-81
2023/12/28 04:06:15;;;;;;;;;;;;;;;;;;107049;1253;60731;-83
2023/12/28 04:08:42;;;;;;;;;;;;;;;;;;107618;1254;60616;-81
2023/12/28 04:11:08;;;;;;;;;;;;;;;;;;107604;1252;60779;-81
2023/12/28 04:13:35;;;;;;;;;;;;;;;;;;107645;1254;60044;-81
2023/12/28 04:16:01;;;;;;;;;;;;;;;;;;107575;1252;60658;-81
2023/12/28 04:18:28;;;;;;;;;;;;;;;;;;107561;1256;61284;-81
2023/12/28 04:20:54;;;;;;;;;;;;;;;;;;107605;1253;60152;-81
2023/12/28 04:23:21;;;;;;;;;;;;;;;;;;107667;1256;61764;-81
2023/12/28 04:25:47;;;;;;;;;;;;;;;;;;107572;1253;60689;-81
2023/12/28 04:28:13;;;;;;;;;;;;;;;;;;107575;1253;60619;-81
2023/12/28 04:30:40;;;;;;;;;;;;;;;;;;107652;1252;60585;-82
2023/12/28 04:33:06;;;;;;;;;;;;;;;;;;107605;1253;60698;-81
2023/12/28 04:35:33;;;;;;;;;;;;;;;;;;107551;1253;60525;-81
2023/12/28 04:37:59;;;;;;;;;;;;;;;;;;107555;1254;61723;-81
2023/12/28 04:40:26;;;;;;;;;;;;;;;;;;107594;1252;60317;-80
2023/12/28 04:42:52;;;;;;;;;;;;;;;;;;107020;1254;61692;-81
2023/12/28 04:45:18;;;;;;;;;;;;;;;;;;106962;1254;61637;-81
2023/12/28 04:47:45;;;;;;;;;;;;;;;;;;107084;1253;60720;-81
2023/12/28 04:50:11;;;;;;;;;;;;;;;;;;106998;1254;62939;-81
2023/12/28 04:52:38;;;;;;;;;;;;;;;;;;107010;1254;60473;-81
2023/12/28 04:55:04;;;;;;;;;;;;;;;;;;107069;1256;60649;-80
2023/12/28 04:57:31;;;;;;;;;;;;;;;;;;107020;1253;60615;-80
2023/12/28 04:59:57;;;;;;;;;;;;;;;;;;107078;1254;61587;-80
2023/12/28 05:02:23;;;;;;;;;;;;;;;;;;107082;1254;60918;-81
2023/12/28 05:04:50;;;;;;;;;;;;;;;;;;106979;1256;61658;-81
2023/12/28 05:07:16;;;;;;;;;;;;;;;;;;107027;1253;60666;-80
2023/12/28 05:09:42;;;;;;;;;;;;;;;;;;107083;1254;61746;-81
2023/12/28 05:12:09;;;;;;;;;;;;;;;;;;107628;1254;61173;-80
2023/12/28 05:14:35;;;;;;;;;;;;;;;;;;107648;1254;62251;-82
2023/12/28 05:17:02;;;;;;;;;;;;;;;;;;107690;1254;60376;-80
2023/12/28 05:19:28;;;;;;;;;;;;;;;;;;107783;1251;60041;-81
2023/12/28 05:21:55;;;;;;;;;;;;;;;;;;107851;1254;62908;-81
2023/12/28 05:24:21;;;;;;;;;;;;;;;;;;107690;1251;61823;-81
2023/12/28 05:26:47;;;;;;;;;;;;;;;;;;107757;1254;60575;-82
2023/12/28 05:29:14;;;;;;;;;;;;;;;;;;107735;1255;60317;-81
2023/12/28 05:31:40;;;;;;;;;;;;;;;;;;108157;1251;60057;-81
2023/12/28 05:34:06;;;;;;;;;;;;;;;;;;109586;1251;59947;-81
2023/12/28 05:36:33;;;;;;;;;;;;;;;;;;108326;1254;61027;-81
2023/12/28 05:38:59;;;;;;;;;;;;;;;;;;107667;1253;60637;-81
2023/12/28 05:41:26;;;;;;;;;;;;;;;;;;107693;1252;62879;-82
2023/12/28 05:43:52;;;;;;;;;;;;;;;;;;107629;1256;59898;-81
2023/12/28 05:46:18;;;;;;;;;;;;;;;;;;107556;1253;60419;-81
2023/12/28 05:48:45;;;;;;;;;;;;;;;;;;107623;1254;59946;-81
2023/12/28 05:51:11;;;;;;;;;;;;;;;;;;107629;1252;62083;-81
2023/12/28 05:53:38;;;;;;;;;;;;;;;;;;107556;1256;60611;-80
2023/12/28 05:56:04;;;;;;;;;;;;;;;;;;107616;1254;61625;-81
2023/12/28 05:58:30;;;;;;;;;;;;;;;;;;109497;1253;59980;-81
2023/12/28 06:00:57;;;;;;;;;;;;;;;;;;109475;1252;59815;-83
2023/12/28 06:03:27;;;;;;;;;;;;;;;;;;109503;1254;59674;-81
2023/12/28 06:05:54;;;;;;;;;;;;;;;;;;109196;1253;60066;-81
2023/12/28 06:08:21;;;;;;;;;;;;;;;;;;107512;1254;60332;-81
2023/12/28 06:10:47;;;;;;;;;;;;;;;;;;107622;1256;61686;-81
2023/12/28 06:13:14;;;;;;;;;;;;;;;;;;107530;1254;61729;-80
2023/12/28 06:15:41;;;;;;;;;;;;;;;;;;109494;1253;59841;-80
2023/12/28 06:18:07;;;;;;;;;;;;;;;;;;109488;1252;60003;-81
2023/12/28 06:20:34;;;;;;;;;;;;;;;;;;109373;1253;59668;-80
2023/12/28 06:23:00;;;;;;;;;;;;;;;;;;107478;1253;60718;-81
2023/12/28 06:25:26;;;;;;;;;;;;;;;;;;107492;1254;60626;-81
2023/12/28 06:27:53;;;;;;;;;;;;;;;;;;107473;1253;59980;-81
2023/12/28 06:30:19;;;;;;;;;;;;;;;;;;107474;1254;61616;-81
2023/12/28 06:32:46;;;;;;;;;;;;;;;;;;108853;1252;177589;-81
2023/12/28 06:35:12;;;;;;;;;;;;;;;;;;109450;1253;59779;-81
2023/12/28 06:37:38;;;;;;;;;;;;;;;;;;109483;1254;59951;-81
2023/12/28 06:40:05;;;;;;;;;;;;;;;;;;109459;1252;59650;-81
2023/12/28 06:42:31;;;;;;;;;;;;;;;;;;109450;1253;60005;-81
2023/12/28 06:44:58;;;;;;;;;;;;;;;;;;109499;1254;59678;-81
2023/12/28 06:47:25;;;;;;;;;;;;;;;;;;109433;1254;59808;-81
2023/12/28 06:49:51;;;;;;;;;;;;;;;;;;109497;1254;59762;-80
2023/12/28 06:52:18;;;;;;;;;;;;;;;;;;109480;1254;60042;-81
2023/12/28 06:54:44;;;;;;;;;;;;;;;;;;109519;1254;59842;-80
2023/12/28 06:57:10;;;;;;;;;;;;;;;;;;109478;1252;59764;-80
2023/12/28 06:59:37;;;;;;;;;;;;;;;;;;109443;1253;59721;-81
2023/12/28 07:02:03;;;;;;;;;;;;;;;;;;107517;1253;60653;-81
2023/12/28 07:04:30;;;;;;;;;;;;;;;;;;107514;1252;61712;-80
2023/12/28 07:06:56;;;;;;;;;;;;;;;;;;107467;1253;60711;-80
2023/12/28 07:09:22;;;;;;;;;;;;;;;;;;107397;1253;62799;-80
2023/12/28 07:11:49;;;;;;;;;;;;;;;;;;107505;1254;61607;-81
2023/12/28 07:14:15;;;;;;;;;;;;;;;;;;107532;1253;63001;-81
2023/12/28 07:16:42;;;;;;;;;;;;;;;;;;106900;1254;60702;-82
2023/12/28 07:19:08;;;;;;;;;;;;;;;;;;106975;1253;60698;-80
2023/12/28 07:21:34;;;;;;;;;;;;;;;;;;106830;1254;61721;-80
2023/12/28 07:24:01;;;;;;;;;;;;;;;;;;106920;1254;60547;-80
2023/12/28 07:26:27;;;;;;;;;;;;;;;;;;106947;1256;60561;-80
2023/12/28 07:28:54;;;;;;;;;;;;;;;;;;106717;1253;61459;-82
2023/12/28 07:31:21;;;;;;;;;;;;;;;;;;106728;1252;60614;-80
2023/12/28 07:33:47;;;;;;;;;;;;;;;;;;106752;1254;61930;-81
2023/12/28 07:36:13;;;;;;;;;;;;;;;;;;107145;1254;62792;-81
2023/12/28 07:38:40;;;;;;;;;;;;;;;;;;107576;1254;62906;-81
2023/12/28 07:41:06;;;;;;;;;;;;;;;;;;107329;1253;60741;-80
2023/12/28 07:43:32;;;;;;;;;;;;;;;;;;107277;1254;60644;-81
2023/12/28 07:45:59;;;;;;;;;;;;;;;;;;107659;1252;60484;-80
2023/12/28 07:48:25;;;;;;;;;;;;;;;;;;107651;1254;61243;-81
2023/12/28 07:50:52;;;;;;;;;;;;;;;;;;107469;1254;61821;-82
2023/12/28 07:53:18;;;;;;;;;;;;;;;;;;107311;1254;61672;-81
2023/12/28 07:55:44;;;;;;;;;;;;;;;;;;107555;1254;60628;-80
2023/12/28 07:58:11;;;;;;;;;;;;;;;;;;107495;1253;60492;-80
2023/12/28 08:00:38;;;;;;;;;;;;;;;;;;107580;1254;60610;-81
2023/12/28 08:03:04;;;;;;;;;;;;;;;;;;107712;1256;60360;-81
2023/12/28 08:05:31;;;;;;;;;;;;;;;;;;108100;1254;60202;-80
2023/12/28 08:07:58;;;;;;;;;;;;;;;;;;108040;1254;60056;-82
2023/12/28 08:10:24;;;;;;;;;;;;;;;;;;108027;1254;60000;-81
2023/12/28 08:12:51;;;;;;;;;;;;;;;;;;108093;1254;60099;-81
2023/12/28 08:15:17;;;;;;;;;;;;;;;;;;108194;1256;60702;-81
2023/12/28 08:17:43;;;;;;;;;;;;;;;;;;108152;1256;61628;-80
2023/12/28 08:20:10;;;;;;;;;;;;;;;;;;107846;1253;61603;-80
2023/12/28 08:22:36;;;;;;;;;;;;;;;;;;107487;1254;60630;-80
2023/12/28 08:25:03;;;;;;;;;;;;;;;;;;107341;1254;60702;-80
2023/12/28 08:27:29;;;;;;;;;;;;;;;;;;107514;1255;60715;-80
2023/12/28 08:29:55;;;;;;;;;;;;;;;;;;107500;1254;60680;-81
2023/12/28 08:32:22;;;;;;;;;;;;;;;;;;107349;1254;60399;-81
2023/12/28 08:34:49;;;;;;;;;;;;;;;;;;107425;1254;60053;-81
2023/12/28 08:37:15;;;;;;;;;;;;;;;;;;107778;1253;61650;-81
2023/12/28 08:39:41;;;;;;;;;;;;;;;;;;107575;1253;60722;-82
2023/12/28 08:42:08;;;;;;;;;;;;;;;;;;106927;1253;60580;-80
2023/12/28 08:44:36;;;;;;;;;;;;;;;;;;107487;1253;60574;-80
2023/12/28 08:47:03;;;;;;;;;;;;;;;;;;107535;1259;62792;-80
2023/12/28 08:49:29;;;;;;;;;;;;;;;;;;107405;1253;61940;-80
2023/12/28 08:51:56;;;;;;;;;;;;;;;;;;107546;1253;62692;-81
2023/12/28 08:54:23;;;;;;;;;;;;;;;;;;107514;1254;60509;-80
2023/12/28 08:56:49;;;;;;;;;;;;;;;;;;108088;1253;60685;-80
2023/12/28 08:59:16;;;;;;;;;;;;;;;;;;107617;1253;60577;-80
2023/12/28 09:01:42;;;;;;;;;;;;;;;;;;107525;1256;60645;-80
2023/12/28 09:04:08;;;;;;;;;;;;;;;;;;107537;1254;60623;-80
2023/12/28 09:06:35;;;;;;;;;;;;;;;;;;107871;1253;61613;-80
2023/12/28 09:09:03;;;;;;;;;;;;;;;;;;107812;1254;60048;-80
2023/12/28 09:11:29;;;;;;;;;;;;;;;;;;107498;1252;60728;-81
2023/12/28 09:13:56;;;;;;;;;;;;;;;;;;107461;1256;62377;-81
2023/12/28 09:16:23;;;;;;;;;;;;;;;;;;107712;1254;60624;-80
2023/12/28 09:18:50;;;;;;;;;;;;;;;;;;107033;1254;60662;-80
2023/12/28 09:21:16;;;;;;;;;;;;;;;;;;106866;1256;60574;-80
2023/12/28 09:23:42;;;;;;;;;;;;;;;;;;106923;1254;61694;-81
2023/12/28 09:26:09;;;;;;;;;;;;;;;;;;106900;1254;60593;-81
2023/12/28 09:28:35;;;;;;;;;;;;;;;;;;107188;1256;61675;-80
2023/12/28 09:31:02;;;;;;;;;;;;;;;;;;107203;1256;61246;-80
2023/12/28 09:33:28;;;;;;;;;;;;;;;;;;107077;1254;61772;-80
2023/12/28 09:35:55;;;;;;;;;;;;;;;;;;107831;1253;62153;-81
2023/12/28 09:38:22;;;;;;;;;;;;;;;;;;107751;1256;60004;-80
2023/12/28 09:40:48;;;;;;;;;;;;;;;;;;107661;1253;60496;-80
2023/12/28 09:43:15;;;;;;;;;;;;;;;;;;107646;1256;61672;-82
2023/12/28 09:45:41;;;;;;;;;;;;;;;;;;107593;1254;60297;-82
2023/12/28 09:48:08;;;;;;;;;;;;;;;;;;107607;1254;60577;-82
2023/12/28 09:50:34;;;;;;;;;;;;;;;;;;107663;1252;60028;-81
2023/12/28 09:53:00;;;;;;;;;;;;;;;;;;107502;1253;61690;-80
2023/12/28 09:55:27;;;;;;;;;;;;;;;;;;107614;1253;60709;-81
2023/12/28 09:57:54;;;;;;;;;;;;;;;;;;107683;1254;60705;-81
2023/12/28 10:00:20;;;;;;;;;;;;;;;;;;107752;1254;61798;-80
2023/12/28 10:02:46;;;;;;;;;;;;;;;;;;107740;1253;59984;-81
2023/12/28 10:05:14;;;;;;;;;;;;;;;;;;107846;1253;60269;-81
2023/12/28 10:07:40;;;;;;;;;;;;;;;;;;107930;1256;60535;-80
2023/12/28 10:10:06;;;;;;;;;;;;;;;;;;107898;1253;60532;-80
2023/12/28 10:12:33;;;;;;;;;;;;;;;;;;107926;1254;61743;-81
2023/12/28 10:15:00;;;;;;;;;;;;;;;;;;108119;1252;60707;-80
2023/12/28 10:17:26;;;;;;;;;;;;;;;;;;108660;1254;61017;-81
2023/12/28 10:19:53;;;;;;;;;;;;;;;;;;108625;1255;61095;-81
2023/12/28 10:22:19;;;;;;;;;;;;;;;;;;108937;1254;59955;-80
2023/12/28 10:24:46;;;;;;;;;;;;;;;;;;108365;1254;60533;-81
2023/12/28 10:27:12;;;;;;;;;;;;;;;;;;107954;1254;61741;-81
2023/12/28 10:29:38;;;;;;;;;;;;;;;;;;107986;1254;61815;-81
2023/12/28 10:32:05;;;;;;;;;;;;;;;;;;108523;1254;61654;-81
2023/12/28 10:34:31;;;;;;;;;;;;;;;;;;109018;1254;60796;-81
2023/12/28 10:36:58;;;;;;;;;;;;;;;;;;107856;1254;60644;-81
2023/12/28 10:39:25;;;;;;;;;;;;;;;;;;107802;1254;59961;-81
2023/12/28 10:41:52;;;;;;;;;;;;;;;;;;107682;1254;60166;-81
2023/12/28 10:44:18;;;;;;;;;;;;;;;;;;107811;1254;60550;-80
2023/12/28 10:46:45;;;;;;;;;;;;;;;;;;107468;1254;61477;-80
2023/12/28 10:49:14;;;;;;;;;;;;;;;;;;107671;1254;61545;-80
2023/12/28 10:51:41;;;;;;;;;;;;;;;;;;107657;1254;61656;-81
2023/12/28 10:54:07;;;;;;;;;;;;;;;;;;107688;1256;61997;-80
2023/12/28 10:56:33;;;;;;;;;;;;;;;;;;107298;1257;60076;-79
2023/12/28 10:59:00;;;;;;;;;;;;;;;;;;107276;1254;60644;-80
2023/12/28 11:01:26;;;;;;;;;;;;;;;;;;107051;1256;62988;-79
2023/12/28 11:03:53;;;;;;;;;;;;;;;;;;107192;1254;61632;-80
2023/12/28 11:06:20;;;;;;;;;;;;;;;;;;107164;1255;60352;-80
2023/12/28 11:08:51;;;;;;;;;;;;;;;;;;107039;1254;60068;-80
2023/12/28 11:11:17;;;;;;;;;;;;;;;;;;107755;1253;61124;-80
2023/12/28 11:13:45;;;;;;;;;;;;;;;;;;109453;1253;59596;-80
2023/12/28 11:16:11;;;;;;;;;;;;;;;;;;109427;1256;59777;-80
2023/12/28 11:18:38;;;;;;;;;;;;;;;;;;109432;1253;60046;-81
2023/12/28 11:21:04;;;;;;;;;;;;;;;;;;109408;1254;59708;-81
2023/12/28 11:23:30;;;;;;;;;;;;;;;;;;109468;1251;60242;-81
2023/12/28 11:25:57;;;;;;;;;;;;;;;;;;109418;1254;59698;-81
2023/12/28 11:28:23;;;;;;;;;;;;;;;;;;109427;1252;59917;-80
2023/12/28 11:30:49;;;;;;;;;;;;;;;;;;109388;1254;59686;-81
2023/12/28 11:33:16;;;;;;;;;;;;;;;;;;109437;1254;59709;-80
2023/12/28 11:35:42;;;;;;;;;;;;;;;;;;109435;1253;59847;-79
2023/12/28 11:38:09;;;;;;;;;;;;;;;;;;109425;1254;59826;-80
2023/12/28 11:40:35;;;;;;;;;;;;;;;;;;109393;1254;59738;-81
2023/12/28 11:43:02;;;;;;;;;;;;;;;;;;108777;1256;60455;-80
2023/12/28 11:45:28;;;;;;;;;;;;;;;;;;106989;1254;60645;-79
2023/12/28 11:47:54;;;;;;;;;;;;;;;;;;107130;1256;61725;-80
2023/12/28 11:50:21;;;;;;;;;;;;;;;;;;107073;1256;62736;-81
2023/12/28 11:52:47;;;;;;;;;;;;;;;;;;107019;1254;60626;-81
2023/12/28 11:55:14;;;;;;;;;;;;;;;;;;107158;1256;61647;-80
2023/12/28 11:57:40;;;;;;;;;;;;;;;;;;107151;1257;61370;-81
2023/12/28 12:00:07;;;;;;;;;;;;;;;;;;107200;1257;60534;-80
2023/12/28 12:02:34;;;;;;;;;;;;;;;;;;107030;1256;60583;-80
2023/12/28 12:05:02;;;;;;;;;;;;;;;;;;107038;1254;60088;-80
2023/12/28 12:07:28;;;;;;;;;;;;;;;;;;107040;1253;61603;-80
2023/12/28 12:09:55;;;;;;;;;;;;;;;;;;107123;1255;60804;-80
2023/12/28 12:12:21;;;;;;;;;;;;;;;;;;107098;1257;60684;-81
2023/12/28 12:14:48;;;;;;;;;;;;;;;;;;107057;1256;61058;-80
2023/12/28 12:17:14;;;;;;;;;;;;;;;;;;107233;1254;60416;-80
2023/12/28 12:19:40;;;;;;;;;;;;;;;;;;107183;1253;60598;-80
2023/12/28 12:22:07;;;;;;;;;;;;;;;;;;108736;1255;60483;-80
2023/12/28 12:24:33;;;;;;;;;;;;;;;;;;108209;1260;60375;-80
2023/12/28 12:27:02;;;;;;;;;;;;;;;;;;107226;1254;61608;-80
2023/12/28 12:29:28;;;;;;;;;;;;;;;;;;107283;1254;63561;-80
2023/12/28 12:31:54;;;;;;;;;;;;;;;;;;107165;1257;60498;-80
2023/12/28 12:34:21;;;;;;;;;;;;;;;;;;107209;1257;60581;-81
2023/12/28 12:36:49;;;;;;;;;;;;;;;;;;107371;1254;61759;-80
2023/12/28 12:39:15;;;;;;;;;;;;;;;;;;107160;1254;61619;-81
2023/12/28 12:41:41;;;;;;;;;;;;;;;;;;107042;1254;61568;-80
2023/12/28 12:44:10;;;;;;;;;;;;;;;;;;106940;1254;60707;-81
2023/12/28 12:46:36;;;;;;;;;;;;;;;;;;107809;1253;61651;-80
2023/12/28 12:49:03;;;;;;;;;;;;;;;;;;107704;1254;60254;-81
2023/12/28 12:51:30;;;;;;;;;;;;;;;;;;107604;1254;60068;-81
2023/12/28 12:53:57;;;;;;;;;;;;;;;;;;107643;1254;63352;-81
2023/12/28 12:56:23;;;;;;;;;;;;;;;;;;107755;1254;61833;-80
2023/12/28 12:58:50;;;;;;;;;;;;;;;;;;107683;1254;61588;-81
2023/12/28 13:01:16;;;;;;;;;;;;;;;;;;107491;1254;60525;-81
2023/12/28 13:03:43;;;;;;;;;;;;;;;;;;107609;1254;60639;-81
2023/12/28 13:06:09;;;;;;;;;;;;;;;;;;107797;1254;60653;-80
2023/12/28 13:08:36;;;;;;;;;;;;;;;;;;107839;1254;62220;-80
2023/12/28 13:11:02;;;;;;;;;;;;;;;;;;107633;1256;62918;-81
2023/12/28 13:13:28;;;;;;;;;;;;;;;;;;107587;1254;60358;-81
2023/12/28 13:15:56;;;;;;;;;;;;;;;;;;107735;1254;61615;-81
2023/12/28 13:18:22;;;;;;;;;;;;;;;;;;107686;1256;61932;-80
2023/12/28 13:20:48;;;;;;;;;;;;;;;;;;107117;1256;60601;-80
2023/12/28 13:23:15;;;;;;;;;;;;;;;;;;107631;1254;62610;-80
2023/12/28 13:25:42;;;;;;;;;;;;;;;;;;107775;1253;60678;-80
2023/12/28 13:28:09;;;;;;;;;;;;;;;;;;107723;1254;60501;-80
2023/12/28 13:30:36;;;;;;;;;;;;;;;;;;107719;1254;62364;-80
2023/12/28 13:33:03;;;;;;;;;;;;;;;;;;107572;1256;60649;-81
2023/12/28 13:35:29;;;;;;;;;;;;;;;;;;107628;1254;60641;-80
2023/12/28 13:37:55;;;;;;;;;;;;;;;;;;107639;1253;61759;-80
2023/12/28 13:40:22;;;;;;;;;;;;;;;;;;107619;1254;60778;-81
2023/12/28 13:42:49;;;;;;;;;;;;;;;;;;106965;1254;61744;-80
2023/12/28 13:45:15;;;;;;;;;;;;;;;;;;107067;1254;60569;-81
2023/12/28 13:47:41;;;;;;;;;;;;;;;;;;107158;1254;61544;-81
2023/12/28 13:50:08;;;;;;;;;;;;;;;;;;107054;1254;62910;-80
2023/12/28 13:52:34;;;;;;;;;;;;;;;;;;107084;1254;61709;-81
2023/12/28 13:55:01;;;;;;;;;;;;;;;;;;107710;1254;60128;-80
2023/12/28 13:57:27;;;;;;;;;;;;;;;;;;107814;1254;60535;-81
2023/12/28 13:59:54;;;;;;;;;;;;;;;;;;107761;1254;61672;-80
2023/12/28 14:02:21;;;;;;;;;;;;;;;;;;107483;1259;62040;-81
2023/12/28 14:04:48;;;;;;;;;;;;;;;;;;107765;1254;60110;-81
2023/12/28 14:07:14;;;;;;;;;;;;;;;;;;107727;1254;62722;-82
2023/12/28 14:09:40;;;;;;;;;;;;;;;;;;107780;1254;59988;-81
2023/12/28 14:12:07;;;;;;;;;;;;;;;;;;107618;1254;61728;-81
2023/12/28 14:14:34;;;;;;;;;;;;;;;;;;107637;1254;61907;-82
2023/12/28 14:17:00;;;;;;;;;;;;;;;;;;107989;1254;61597;-82
2023/12/28 14:19:26;;;;;;;;;;;;;;;;;;107950;1256;60550;-81
2023/12/28 14:21:53;;;;;;;;;;;;;;;;;;108078;1254;60623;-82
2023/12/28 14:24:19;;;;;;;;;;;;;;;;;;107811;1254;60409;-81
2023/12/28 14:26:46;;;;;;;;;;;;;;;;;;108252;1254;60604;-81
2023/12/28 14:29:12;;;;;;;;;;;;;;;;;;107986;1256;60051;-80
2023/12/28 14:31:39;;;;;;;;;;;;;;;;;;107880;1253;61642;-80
2023/12/28 14:34:05;;;;;;;;;;;;;;;;;;107672;1256;61516;-81
2023/12/28 14:36:32;;;;;;;;;;;;;;;;;;107865;1254;60762;-80
2023/12/28 14:38:58;;;;;;;;;;;;;;;;;;107737;1254;59961;-81
2023/12/28 14:41:25;;;;;;;;;;;;;;;;;;107844;1254;60306;-81
2023/12/28 14:43:51;;;;;;;;;;;;;;;;;;109447;1254;59657;-81
2023/12/28 14:46:17;;;;;;;;;;;;;;;;;;109364;1254;59839;-81
2023/12/28 14:48:44;;;;;;;;;;;;;;;;;;107210;1257;61758;-81
2023/12/28 14:51:10;;;;;;;;;;;;;;;;;;107032;1254;60561;-81
2023/12/28 14:53:36;;;;;;;;;;;;;;;;;;107104;1254;60640;-80
2023/12/28 14:56:03;;;;;;;;;;;;;;;;;;107098;1254;59984;-81
2023/12/28 14:58:30;;;;;;;;;;;;;;;;;;107183;1254;61645;-81
2023/12/28 15:00:57;;;;;;;;;;;;;;;;;;107044;1254;61696;-81
2023/12/28 15:03:23;;;;;;;;;;;;;;;;;;107129;1254;61386;-80
2023/12/28 15:05:50;;;;;;;;;;;;;;;;;;107154;1254;61744;-81
2023/12/28 15:08:16;;;;;;;;;;;;;;;;;;107206;1253;60442;-81
2023/12/28 15:10:42;;;;;;;;;;;;;;;;;;107675;1254;61724;-81
2023/12/28 15:13:09;;;;;;;;;;;;;;;;;;108966;1254;59955;-81
2023/12/28 15:15:35;;;;;;;;;;;;;;;;;;109447;1252;59983;-80
2023/12/28 15:18:02;;;;;;;;;;;;;;;;;;109455;1253;60085;-81
2023/12/28 15:20:28;;;;;;;;;;;;;;;;;;107241;1253;60725;-81
2023/12/28 15:22:55;;;;;;;;;;;;;;;;;;108783;1254;60514;-81
2023/12/28 15:25:21;;;;;;;;;;;;;;;;;;109285;1253;59994;-80
2023/12/28 15:27:47;;;;;;;;;;;;;;;;;;109444;1254;59905;-80
2023/12/28 15:30:14;;;;;;;;;;;;;;;;;;109013;1253;61613;-80
2023/12/28 15:32:41;;;;;;;;;;;;;;;;;;107645;1254;60744;-80
2023/12/28 15:35:07;;;;;;;;;;;;;;;;;;107588;1254;61696;-80
2023/12/28 15:37:34;;;;;;;;;;;;;;;;;;107804;1252;61712;-80
2023/12/28 15:40:00;;;;;;;;;;;;;;;;;;107756;1254;61884;-80
2023/12/28 15:42:26;;;;;;;;;;;;;;;;;;107285;1254;60059;-80
2023/12/28 15:44:53;;;;;;;;;;;;;;;;;;107213;1254;62580;-81
2023/12/28 15:47:19;;;;;;;;;;;;;;;;;;107215;1254;62086;-81
2023/12/28 15:49:47;;;;;;;;;;;;;;;;;;107165;1254;61682;-81
2023/12/28 15:52:13;;;;;;;;;;;;;;;;;;107952;1253;60613;-80
2023/12/28 15:54:40;;;;;;;;;;;;;;;;;;107775;1253;60700;-81
2023/12/28 15:57:06;;;;;;;;;;;;;;;;;;106933;1254;61917;-80
2023/12/28 15:59:33;;;;;;;;;;;;;;;;;;106880;1254;61117;-80
2023/12/28 16:02:00;;;;;;;;;;;;;;;;;;106892;1257;60641;-80
2023/12/28 16:04:26;;;;;;;;;;;;;;;;;;106957;1253;60654;-80
2023/12/28 16:06:53;;;;;;;;;;;;;;;;;;106961;1254;61816;-80
2023/12/28 16:09:19;;;;;;;;;;;;;;;;;;106929;1254;60320;-80
2023/12/28 16:11:45;;;;;;;;;;;;;;;;;;108729;1254;59801;-80
2023/12/28 16:14:12;;;;;;;;;;;;;;;;;;108426;1253;60657;-80
2023/12/28 16:16:38;;;;;;;;;;;;;;;;;;106913;1253;60609;-80
2023/12/28 16:19:04;;;;;;;;;;;;;;;;;;106918;1256;62426;-80
2023/12/28 16:21:31;;;;;;;;;;;;;;;;;;106991;1254;60622;-80
2023/12/28 16:23:57;;;;;;;;;;;;;;;;;;106902;1254;60739;-80